sensor_id;sensor_type;location;lat;lon;timestamp;temperature;humidity
49679;DHT22;35570;48.218;16.326;2023-05-18T00:00:21;10.40;99.90
49679;DHT22;35570;48.218;16.326;2023-05-18T00:02:48;10.40;99.90
49679;DHT22;35570;48.218;16.326;2023-05-18T00:05:14;10.40;99.90
49679;DHT22;35570;48.218;16.326;2023-05-18T00:07:42;10.40;99.90
49679;DHT22;35570;48.218;16.326;2023-05-18T00:10:08;10.40;99.90
49679;DHT22;35570;48.218;16.326;2023-05-18T00:12:34;10.40;99.90
49679;DHT22;35570;48.218;16.326;2023-05-18T00:15:01;10.40;99.90
49679;DHT22;35570;48.218;16.326;2023-05-18T00:17:27;10.40;99.90
49679;DHT22;35570;48.218;16.326;2023-05-18T00:19:52;10.40;99.90
49679;DHT22;35570;48.218;16.326;2023-05-18T00:22:18;10.40;99.90
49679;DHT22;35570;48.218;16.326;2023-05-18T00:24:47;10.30;99.90
49679;DHT22;35570;48.218;16.326;2023-05-18T00:27:13;10.40;99.90
49679;DHT22;35570;48.218;16.326;2023-05-18T00:29:39;10.30;99.90
49679;DHT22;35570;48.218;16.326;2023-05-18T00:32:05;10.30;99.90
49679;DHT22;35570;48.218;16.326;2023-05-18T00:34:30;10.30;99.90
49679;DHT22;35570;48.218;16.326;2023-05-18T00:36:56;10.30;99.90
49679;DHT22;35570;48.218;16.326;2023-05-18T00:39:22;10.40;99.90
49679;DHT22;35570;48.218;16.326;2023-05-18T00:41:47;10.40;99.90
49679;DHT22;35570;48.218;16.326;2023-05-18T00:44:13;10.40;99.90
49679;DHT22;35570;48.218;16.326;2023-05-18T00:46:39;10.40;99.90
49679;DHT22;35570;48.218;16.326;2023-05-18T00:49:05;10.40;99.90
49679;DHT22;35570;48.218;16.326;2023-05-18T00:51:32;10.40;99.90
49679;DHT22;35570;48.218;16.326;2023-05-18T00:53:59;10.40;99.90
49679;DHT22;35570;48.218;16.326;2023-05-18T00:56:26;10.40;99.90
49679;DHT22;35570;48.218;16.326;2023-05-18T00:58:53;10.40;99.90
49679;DHT22;35570;48.218;16.326;2023-05-18T01:01:26;10.30;99.90
49679;DHT22;35570;48.218;16.326;2023-05-18T01:03:57;10.40;99.90
49679;DHT22;35570;48.218;16.326;2023-05-18T01:06:27;10.30;99.90
49679;DHT22;35570;48.218;16.326;2023-05-18T01:12:50;10.40;99.90
49679;DHT22;35570;48.218;16.326;2023-05-18T01:15:56;10.40;99.90
49679;DHT22;35570;48.218;16.326;2023-05-18T01:18:33;10.40;99.90
49679;DHT22;35570;48.218;16.326;2023-05-18T01:25:33;10.30;99.90
49679;DHT22;35570;48.218;16.326;2023-05-18T01:28:08;10.30;99.90
49679;DHT22;35570;48.218;16.326;2023-05-18T01:30:46;10.30;99.90
49679;DHT22;35570;48.218;16.326;2023-05-18T01:33:12;10.30;99.90
49679;DHT22;35570;48.218;16.326;2023-05-18T01:35:39;10.30;99.90
49679;DHT22;35570;48.218;16.326;2023-05-18T01:38:23;10.30;99.90
49679;DHT22;35570;48.218;16.326;2023-05-18T01:46:35;10.20;99.90
49679;DHT22;35570;48.218;16.326;2023-05-18T01:51:53;10.30;99.90
49679;DHT22;35570;48.218;16.326;2023-05-18T01:54:21;10.30;99.90
49679;DHT22;35570;48.218;16.326;2023-05-18T01:56:49;10.30;99.90
49679;DHT22;35570;48.218;16.326;2023-05-18T01:59:16;10.30;99.90
49679;DHT22;35570;48.218;16.326;2023-05-18T02:01:42;10.30;99.90
49679;DHT22;35570;48.218;16.326;2023-05-18T02:04:09;10.30;99.90
49679;DHT22;35570;48.218;16.326;2023-05-18T02:06:35;10.30;99.90
49679;DHT22;35570;48.218;16.326;2023-05-18T02:09:03;10.30;99.90
49679;DHT22;35570;48.218;16.326;2023-05-18T02:11:29;10.30;99.90
49679;DHT22;35570;48.218;16.326;2023-05-18T02:13:55;10.30;99.90
49679;DHT22;35570;48.218;16.326;2023-05-18T02:16:20;10.30;99.90
49679;DHT22;35570;48.218;16.326;2023-05-18T02:18:46;10.30;99.90
49679;DHT22;35570;48.218;16.326;2023-05-18T02:21:12;10.30;99.90
49679;DHT22;35570;48.218;16.326;2023-05-18T02:23:38;10.30;99.90
49679;DHT22;35570;48.218;16.326;2023-05-18T02:26:04;10.30;99.90
49679;DHT22;35570;48.218;16.326;2023-05-18T02:28:30;10.30;99.90
49679;DHT22;35570;48.218;16.326;2023-05-18T02:31:22;10.20;99.90
49679;DHT22;35570;48.218;16.326;2023-05-18T02:33:48;10.20;99.90
49679;DHT22;35570;48.218;16.326;2023-05-18T02:36:13;10.20;99.90
49679;DHT22;35570;48.218;16.326;2023-05-18T02:38:40;10.20;99.90
49679;DHT22;35570;48.218;16.326;2023-05-18T02:41:07;10.20;99.90
49679;DHT22;35570;48.218;16.326;2023-05-18T02:51:15;10.20;99.90
49679;DHT22;35570;48.218;16.326;2023-05-18T02:53:41;10.10;99.90
49679;DHT22;35570;48.218;16.326;2023-05-18T02:56:14;9.90;99.90
49679;DHT22;35570;48.218;16.326;2023-05-18T03:02:05;10.00;99.90
49679;DHT22;35570;48.218;16.326;2023-05-18T03:04:57;10.00;99.90
49679;DHT22;35570;48.218;16.326;2023-05-18T03:07:23;10.00;99.90
49679;DHT22;35570;48.218;16.326;2023-05-18T03:09:49;10.00;99.90
49679;DHT22;35570;48.218;16.326;2023-05-18T03:12:15;10.10;99.90
49679;DHT22;35570;48.218;16.326;2023-05-18T03:14:41;10.10;99.90
49679;DHT22;35570;48.218;16.326;2023-05-18T03:17:07;9.30;99.90
49679;DHT22;35570;48.218;16.326;2023-05-18T03:19:33;10.00;99.90
49679;DHT22;35570;48.218;16.326;2023-05-18T03:21:59;10.00;99.90
49679;DHT22;35570;48.218;16.326;2023-05-18T03:24:25;10.10;99.90
49679;DHT22;35570;48.218;16.326;2023-05-18T03:26:54;8.40;99.90
49679;DHT22;35570;48.218;16.326;2023-05-18T03:29:22;10.10;99.90
49679;DHT22;35570;48.218;16.326;2023-05-18T03:31:48;10.10;99.90
49679;DHT22;35570;48.218;16.326;2023-05-18T03:34:14;10.10;99.90
49679;DHT22;35570;48.218;16.326;2023-05-18T03:36:40;10.10;99.90
49679;DHT22;35570;48.218;16.326;2023-05-18T03:39:07;10.30;99.90
49679;DHT22;35570;48.218;16.326;2023-05-18T03:41:33;10.20;99.90
49679;DHT22;35570;48.218;16.326;2023-05-18T03:43:59;10.20;99.90
49679;DHT22;35570;48.218;16.326;2023-05-18T03:46:25;10.20;99.90
49679;DHT22;35570;48.218;16.326;2023-05-18T03:48:51;10.20;99.90
49679;DHT22;35570;48.218;16.326;2023-05-18T03:51:18;10.20;99.90
49679;DHT22;35570;48.218;16.326;2023-05-18T03:53:45;10.20;99.90
49679;DHT22;35570;48.218;16.326;2023-05-18T03:56:11;10.10;99.90
49679;DHT22;35570;48.218;16.326;2023-05-18T03:58:38;10.20;99.90
49679;DHT22;35570;48.218;16.326;2023-05-18T04:01:04;10.20;99.90
49679;DHT22;35570;48.218;16.326;2023-05-18T04:03:42;10.20;99.90
49679;DHT22;35570;48.218;16.326;2023-05-18T04:06:08;10.20;99.90
49679;DHT22;35570;48.218;16.326;2023-05-18T04:08:35;10.30;99.90
49679;DHT22;35570;48.218;16.326;2023-05-18T04:11:01;10.30;99.90
49679;DHT22;35570;48.218;16.326;2023-05-18T04:13:27;10.30;99.90
49679;DHT22;35570;48.218;16.326;2023-05-18T04:15:53;10.30;99.90
49679;DHT22;35570;48.218;16.326;2023-05-18T04:18:19;11.40;99.90
49679;DHT22;35570;48.218;16.326;2023-05-18T04:20:45;10.40;99.90
49679;DHT22;35570;48.218;16.326;2023-05-18T04:23:11;10.10;99.90
49679;DHT22;35570;48.218;16.326;2023-05-18T04:25:37;10.40;99.90
49679;DHT22;35570;48.218;16.326;2023-05-18T04:28:04;10.40;99.90
49679;DHT22;35570;48.218;16.326;2023-05-18T04:30:31;10.20;99.80
49679;DHT22;35570;48.218;16.326;2023-05-18T04:32:57;10.40;99.60
49679;DHT22;35570;48.218;16.326;2023-05-18T04:35:27;10.50;99.90
49679;DHT22;35570;48.218;16.326;2023-05-18T04:37:53;10.40;99.80
49679;DHT22;35570;48.218;16.326;2023-05-18T04:40:19;10.40;99.90
49679;DHT22;35570;48.218;16.326;2023-05-18T04:42:45;10.40;99.70
49679;DHT22;35570;48.218;16.326;2023-05-18T04:45:38;10.40;99.60
49679;DHT22;35570;48.218;16.326;2023-05-18T04:48:04;10.40;99.90
49679;DHT22;35570;48.218;16.326;2023-05-18T04:50:31;10.40;99.90
49679;DHT22;35570;48.218;16.326;2023-05-18T04:52:56;10.50;99.90
49679;DHT22;35570;48.218;16.326;2023-05-18T04:55:26;10.70;99.70
49679;DHT22;35570;48.218;16.326;2023-05-18T04:57:53;11.80;99.90
49679;DHT22;35570;48.218;16.326;2023-05-18T05:00:23;10.40;99.80
49679;DHT22;35570;48.218;16.326;2023-05-18T05:02:50;10.40;99.80
49679;DHT22;35570;48.218;16.326;2023-05-18T05:05:16;10.50;99.90
49679;DHT22;35570;48.218;16.326;2023-05-18T05:07:43;10.40;99.90
49679;DHT22;35570;48.218;16.326;2023-05-18T05:10:09;10.50;99.90
49679;DHT22;35570;48.218;16.326;2023-05-18T05:12:36;10.50;99.90
49679;DHT22;35570;48.218;16.326;2023-05-18T05:15:03;10.50;99.40
49679;DHT22;35570;48.218;16.326;2023-05-18T05:17:29;10.40;99.00
49679;DHT22;35570;48.218;16.326;2023-05-18T05:20:08;10.50;99.30
49679;DHT22;35570;48.218;16.326;2023-05-18T05:22:34;10.50;99.30
49679;DHT22;35570;48.218;16.326;2023-05-18T07:00:00;11.10;97.40
49679;DHT22;35570;48.218;16.326;2023-05-18T07:14:17;11.20;98.10
49679;DHT22;35570;48.218;16.326;2023-05-18T07:40:02;11.10;98.00
49679;DHT22;35570;48.218;16.326;2023-05-18T07:45:05;11.10;98.70
49679;DHT22;35570;48.218;16.326;2023-05-18T07:47:31;11.10;98.70
49679;DHT22;35570;48.218;16.326;2023-05-18T08:00:40;11.20;97.90
49679;DHT22;35570;48.218;16.326;2023-05-18T08:10:52;11.20;98.00
49679;DHT22;35570;48.218;16.326;2023-05-18T09:09:39;11.50;96.50
49679;DHT22;35570;48.218;16.326;2023-05-18T09:12:06;11.60;95.80
49679;DHT22;35570;48.218;16.326;2023-05-18T09:14:33;11.50;95.90
49679;DHT22;35570;48.218;16.326;2023-05-18T09:16:59;11.60;97.20
49679;DHT22;35570;48.218;16.326;2023-05-18T09:19:25;11.70;96.50
49679;DHT22;35570;48.218;16.326;2023-05-18T10:04:10;11.70;97.00
49679;DHT22;35570;48.218;16.326;2023-05-18T10:06:36;12.20;96.60
49679;DHT22;35570;48.218;16.326;2023-05-18T10:09:25;11.80;96.50
49679;DHT22;35570;48.218;16.326;2023-05-18T10:22:05;11.80;96.70
49679;DHT22;35570;48.218;16.326;2023-05-18T10:27:47;11.90;96.80
49679;DHT22;35570;48.218;16.326;2023-05-18T10:30:14;11.90;96.00
49679;DHT22;35570;48.218;16.326;2023-05-18T10:32:42;11.90;96.40
49679;DHT22;35570;48.218;16.326;2023-05-18T10:35:12;11.90;96.20
49679;DHT22;35570;48.218;16.326;2023-05-18T10:37:54;11.90;96.40
49679;DHT22;35570;48.218;16.326;2023-05-18T10:43:44;12.00;96.30
49679;DHT22;35570;48.218;16.326;2023-05-18T10:46:11;12.00;95.90
49679;DHT22;35570;48.218;16.326;2023-05-18T10:49:09;12.00;96.40
49679;DHT22;35570;48.218;16.326;2023-05-18T10:51:40;12.00;96.20
49679;DHT22;35570;48.218;16.326;2023-05-18T10:54:13;11.90;96.30
49679;DHT22;35570;48.218;16.326;2023-05-18T10:56:44;12.00;96.20
49679;DHT22;35570;48.218;16.326;2023-05-18T10:59:31;12.00;96.30
49679;DHT22;35570;48.218;16.326;2023-05-18T11:02:01;12.00;96.50
49679;DHT22;35570;48.218;16.326;2023-05-18T11:04:59;12.00;96.30
49679;DHT22;35570;48.218;16.326;2023-05-18T11:07:29;12.10;96.80
49679;DHT22;35570;48.218;16.326;2023-05-18T11:10:07;12.10;96.70
49679;DHT22;35570;48.218;16.326;2023-05-18T11:12:37;12.10;96.00
49679;DHT22;35570;48.218;16.326;2023-05-18T11:15:05;12.10;96.20
49679;DHT22;35570;48.218;16.326;2023-05-18T11:17:31;12.10;96.50
49679;DHT22;35570;48.218;16.326;2023-05-18T11:25:34;12.00;97.10
49679;DHT22;35570;48.218;16.326;2023-05-18T11:28:24;12.10;96.70
49679;DHT22;35570;48.218;16.326;2023-05-18T11:31:02;12.10;97.10
49679;DHT22;35570;48.218;16.326;2023-05-18T11:33:32;12.00;97.30
49679;DHT22;35570;48.218;16.326;2023-05-18T11:39:05;12.10;97.60
49679;DHT22;35570;48.218;16.326;2023-05-18T11:41:37;12.10;97.10
49679;DHT22;35570;48.218;16.326;2023-05-18T11:51:10;12.30;97.50
49679;DHT22;35570;48.218;16.326;2023-05-18T11:53:48;12.30;97.90
49679;DHT22;35570;48.218;16.326;2023-05-18T11:56:14;12.30;97.60
49679;DHT22;35570;48.218;16.326;2023-05-18T11:58:40;12.30;97.50
49679;DHT22;35570;48.218;16.326;2023-05-18T12:01:05;12.40;98.00
49679;DHT22;35570;48.218;16.326;2023-05-18T12:03:35;12.40;97.40
49679;DHT22;35570;48.218;16.326;2023-05-18T12:06:04;12.40;97.80
49679;DHT22;35570;48.218;16.326;2023-05-18T12:08:31;12.40;97.50
49679;DHT22;35570;48.218;16.326;2023-05-18T12:10:58;12.40;97.70
49679;DHT22;35570;48.218;16.326;2023-05-18T12:13:25;12.50;96.40
49679;DHT22;35570;48.218;16.326;2023-05-18T12:15:52;12.50;96.70
49679;DHT22;35570;48.218;16.326;2023-05-18T12:18:19;12.50;97.50
49679;DHT22;35570;48.218;16.326;2023-05-18T12:20:44;12.50;96.70
49679;DHT22;35570;48.218;16.326;2023-05-18T12:23:12;12.40;96.20
49679;DHT22;35570;48.218;16.326;2023-05-18T12:25:37;12.40;96.10
49679;DHT22;35570;48.218;16.326;2023-05-18T12:28:04;12.40;97.00
49679;DHT22;35570;48.218;16.326;2023-05-18T12:30:32;12.40;96.80
49679;DHT22;35570;48.218;16.326;2023-05-18T12:33:00;12.40;97.50
49679;DHT22;35570;48.218;16.326;2023-05-18T12:35:29;12.40;97.60
49679;DHT22;35570;48.218;16.326;2023-05-18T12:37:56;12.50;97.60
49679;DHT22;35570;48.218;16.326;2023-05-18T12:40:24;12.50;97.90
49679;DHT22;35570;48.218;16.326;2023-05-18T12:42:57;12.60;97.40
49679;DHT22;35570;48.218;16.326;2023-05-18T12:45:31;12.50;98.00
49679;DHT22;35570;48.218;16.326;2023-05-18T12:48:04;12.60;98.70
49679;DHT22;35570;48.218;16.326;2023-05-18T12:50:30;12.60;98.00
49679;DHT22;35570;48.218;16.326;2023-05-18T12:52:56;12.70;98.20
49679;DHT22;35570;48.218;16.326;2023-05-18T12:55:22;12.70;97.60
49679;DHT22;35570;48.218;16.326;2023-05-18T13:00:36;12.70;97.60
49679;DHT22;35570;48.218;16.326;2023-05-18T13:03:08;12.70;98.10
49679;DHT22;35570;48.218;16.326;2023-05-18T13:05:35;12.70;98.10
49679;DHT22;35570;48.218;16.326;2023-05-18T13:08:01;12.60;97.90
49679;DHT22;35570;48.218;16.326;2023-05-18T13:10:30;12.60;97.60
49679;DHT22;35570;48.218;16.326;2023-05-18T13:12:57;12.60;98.10
49679;DHT22;35570;48.218;16.326;2023-05-18T13:15:35;12.60;98.50
49679;DHT22;35570;48.218;16.326;2023-05-18T13:18:05;12.60;98.40
49679;DHT22;35570;48.218;16.326;2023-05-18T13:20:46;12.60;98.20
49679;DHT22;35570;48.218;16.326;2023-05-18T13:23:22;12.60;98.40
49679;DHT22;35570;48.218;16.326;2023-05-18T13:25:48;12.70;98.70
49679;DHT22;35570;48.218;16.326;2023-05-18T13:28:16;12.70;98.20
49679;DHT22;35570;48.218;16.326;2023-05-18T13:30:44;12.70;98.00
49679;DHT22;35570;48.218;16.326;2023-05-18T13:33:10;12.70;98.50
49679;DHT22;35570;48.218;16.326;2023-05-18T13:35:40;12.60;98.50
49679;DHT22;35570;48.218;16.326;2023-05-18T13:38:10;12.60;98.40
49679;DHT22;35570;48.218;16.326;2023-05-18T13:40:36;12.60;98.60
49679;DHT22;35570;48.218;16.326;2023-05-18T13:46:20;12.50;99.20
49679;DHT22;35570;48.218;16.326;2023-05-18T14:03:00;12.70;99.40
49679;DHT22;35570;48.218;16.326;2023-05-18T14:08:51;12.60;99.40
49679;DHT22;35570;48.218;16.326;2023-05-18T14:15:02;12.50;99.60
49679;DHT22;35570;48.218;16.326;2023-05-18T14:17:46;12.60;99.80
49679;DHT22;35570;48.218;16.326;2023-05-18T14:20:11;12.60;99.90
49679;DHT22;35570;48.218;16.326;2023-05-18T14:22:37;12.60;99.90
49679;DHT22;35570;48.218;16.326;2023-05-18T14:25:03;12.70;99.90
49679;DHT22;35570;48.218;16.326;2023-05-18T14:27:29;12.70;99.80
49679;DHT22;35570;48.218;16.326;2023-05-18T14:29:54;12.70;99.90
49679;DHT22;35570;48.218;16.326;2023-05-18T14:35:43;12.80;99.90
49679;DHT22;35570;48.218;16.326;2023-05-18T14:38:08;12.80;99.90
49679;DHT22;35570;48.218;16.326;2023-05-18T14:40:34;12.80;99.90
49679;DHT22;35570;48.218;16.326;2023-05-18T14:42:59;12.80;99.90
49679;DHT22;35570;48.218;16.326;2023-05-18T14:45:25;12.90;99.90
49679;DHT22;35570;48.218;16.326;2023-05-18T14:47:51;12.80;99.90
49679;DHT22;35570;48.218;16.326;2023-05-18T14:50:17;12.80;99.90
49679;DHT22;35570;48.218;16.326;2023-05-18T14:52:42;12.80;99.90
49679;DHT22;35570;48.218;16.326;2023-05-18T14:55:08;12.70;99.90
49679;DHT22;35570;48.218;16.326;2023-05-18T14:57:34;12.80;99.90
49679;DHT22;35570;48.218;16.326;2023-05-18T14:59:59;12.80;99.90
49679;DHT22;35570;48.218;16.326;2023-05-18T15:02:25;12.80;99.90
49679;DHT22;35570;48.218;16.326;2023-05-18T15:04:51;12.80;99.90
49679;DHT22;35570;48.218;16.326;2023-05-18T15:07:16;12.80;99.90
49679;DHT22;35570;48.218;16.326;2023-05-18T15:09:42;12.90;99.90
49679;DHT22;35570;48.218;16.326;2023-05-18T15:12:08;12.90;99.90
49679;DHT22;35570;48.218;16.326;2023-05-18T15:14:34;12.90;99.90
49679;DHT22;35570;48.218;16.326;2023-05-18T15:17:00;12.80;99.90
49679;DHT22;35570;48.218;16.326;2023-05-18T15:19:25;12.80;99.90
49679;DHT22;35570;48.218;16.326;2023-05-18T15:21:51;12.30;99.90
49679;DHT22;35570;48.218;16.326;2023-05-18T15:24:17;12.80;99.90
49679;DHT22;35570;48.218;16.326;2023-05-18T15:26:43;12.70;99.90
49679;DHT22;35570;48.218;16.326;2023-05-18T15:29:09;12.80;99.90
49679;DHT22;35570;48.218;16.326;2023-05-18T15:31:34;12.80;99.90
49679;DHT22;35570;48.218;16.326;2023-05-18T15:34:04;12.70;99.90
49679;DHT22;35570;48.218;16.326;2023-05-18T15:36:32;12.70;99.90
49679;DHT22;35570;48.218;16.326;2023-05-18T15:39:06;12.80;99.90
49679;DHT22;35570;48.218;16.326;2023-05-18T15:41:33;12.70;99.90
49679;DHT22;35570;48.218;16.326;2023-05-18T15:44:06;10.80;99.90
49679;DHT22;35570;48.218;16.326;2023-05-18T15:46:32;12.70;99.90
49679;DHT22;35570;48.218;16.326;2023-05-18T15:49:00;12.70;99.90
49679;DHT22;35570;48.218;16.326;2023-05-18T15:51:26;12.70;99.90
49679;DHT22;35570;48.218;16.326;2023-05-18T15:53:52;12.70;99.90
49679;DHT22;35570;48.218;16.326;2023-05-18T15:56:18;12.60;99.90
49679;DHT22;35570;48.218;16.326;2023-05-18T15:58:49;12.60;99.90
49679;DHT22;35570;48.218;16.326;2023-05-18T16:01:17;11.70;99.90
49679;DHT22;35570;48.218;16.326;2023-05-18T16:03:43;12.70;99.90
49679;DHT22;35570;48.218;16.326;2023-05-18T16:06:09;12.90;99.90
49679;DHT22;35570;48.218;16.326;2023-05-18T16:08:35;12.60;99.90
49679;DHT22;35570;48.218;16.326;2023-05-18T16:11:00;12.60;99.90
49679;DHT22;35570;48.218;16.326;2023-05-18T16:13:30;12.70;99.90
49679;DHT22;35570;48.218;16.326;2023-05-18T16:16:13;12.60;99.90
49679;DHT22;35570;48.218;16.326;2023-05-18T16:18:39;12.70;99.90
49679;DHT22;35570;48.218;16.326;2023-05-18T16:21:05;12.70;99.90
49679;DHT22;35570;48.218;16.326;2023-05-18T16:23:31;12.70;99.90
49679;DHT22;35570;48.218;16.326;2023-05-18T16:26:15;12.70;99.90
49679;DHT22;35570;48.218;16.326;2023-05-18T16:28:41;12.60;99.90
49679;DHT22;35570;48.218;16.326;2023-05-18T16:31:07;12.60;99.90
49679;DHT22;35570;48.218;16.326;2023-05-18T16:37:37;12.60;99.90
49679;DHT22;35570;48.218;16.326;2023-05-18T16:40:03;12.70;99.90
49679;DHT22;35570;48.218;16.326;2023-05-18T16:42:31;12.60;99.90
49679;DHT22;35570;48.218;16.326;2023-05-18T16:44:59;12.50;99.90
49679;DHT22;35570;48.218;16.326;2023-05-18T16:47:25;12.50;99.90
49679;DHT22;35570;48.218;16.326;2023-05-18T16:49:52;12.50;99.90
49679;DHT22;35570;48.218;16.326;2023-05-18T16:52:17;12.50;99.90
49679;DHT22;35570;48.218;16.326;2023-05-18T16:54:44;12.60;99.90
49679;DHT22;35570;48.218;16.326;2023-05-18T16:57:09;12.50;99.90
49679;DHT22;35570;48.218;16.326;2023-05-18T16:59:38;12.50;99.90
49679;DHT22;35570;48.218;16.326;2023-05-18T17:02:04;12.50;99.90
49679;DHT22;35570;48.218;16.326;2023-05-18T17:04:29;12.50;99.90
49679;DHT22;35570;48.218;16.326;2023-05-18T17:06:55;12.50;99.90
49679;DHT22;35570;48.218;16.326;2023-05-18T17:09:21;12.50;99.90
49679;DHT22;35570;48.218;16.326;2023-05-18T17:11:47;12.50;99.90
49679;DHT22;35570;48.218;16.326;2023-05-18T17:14:13;12.50;99.90
49679;DHT22;35570;48.218;16.326;2023-05-18T17:16:38;12.50;99.90
49679;DHT22;35570;48.218;16.326;2023-05-18T17:19:08;12.50;99.90
49679;DHT22;35570;48.218;16.326;2023-05-18T17:21:34;12.50;99.90
49679;DHT22;35570;48.218;16.326;2023-05-18T17:23:59;12.50;99.90
49679;DHT22;35570;48.218;16.326;2023-05-18T17:26:25;12.50;99.90
49679;DHT22;35570;48.218;16.326;2023-05-18T17:28:55;12.50;99.90
49679;DHT22;35570;48.218;16.326;2023-05-18T17:31:20;12.50;99.90
49679;DHT22;35570;48.218;16.326;2023-05-18T17:33:46;12.40;99.90
49679;DHT22;35570;48.218;16.326;2023-05-18T17:36:15;12.40;99.90
49679;DHT22;35570;48.218;16.326;2023-05-18T17:38:45;12.40;99.90
49679;DHT22;35570;48.218;16.326;2023-05-18T17:41:11;12.40;99.90
49679;DHT22;35570;48.218;16.326;2023-05-18T17:43:37;12.40;99.90
49679;DHT22;35570;48.218;16.326;2023-05-18T17:46:02;12.40;99.90
49679;DHT22;35570;48.218;16.326;2023-05-18T17:48:28;12.40;99.90
49679;DHT22;35570;48.218;16.326;2023-05-18T17:50:53;12.40;99.90
49679;DHT22;35570;48.218;16.326;2023-05-18T17:53:19;12.30;99.90
49679;DHT22;35570;48.218;16.326;2023-05-18T17:55:46;12.30;99.90
49679;DHT22;35570;48.218;16.326;2023-05-18T17:58:12;12.30;99.90
49679;DHT22;35570;48.218;16.326;2023-05-18T18:00:38;12.30;99.90
49679;DHT22;35570;48.218;16.326;2023-05-18T18:03:04;12.30;99.90
49679;DHT22;35570;48.218;16.326;2023-05-18T18:05:30;12.40;99.90
49679;DHT22;35570;48.218;16.326;2023-05-18T18:07:55;12.40;99.90
49679;DHT22;35570;48.218;16.326;2023-05-18T18:10:23;12.30;99.90
49679;DHT22;35570;48.218;16.326;2023-05-18T18:12:48;12.30;99.90
49679;DHT22;35570;48.218;16.326;2023-05-18T18:15:14;12.30;99.90
49679;DHT22;35570;48.218;16.326;2023-05-18T18:17:40;12.30;99.90
49679;DHT22;35570;48.218;16.326;2023-05-18T18:20:07;12.30;99.90
49679;DHT22;35570;48.218;16.326;2023-05-18T18:22:36;12.30;99.90
49679;DHT22;35570;48.218;16.326;2023-05-18T18:25:02;12.30;99.90
49679;DHT22;35570;48.218;16.326;2023-05-18T18:27:27;12.30;99.90
49679;DHT22;35570;48.218;16.326;2023-05-18T18:29:53;12.20;99.90
49679;DHT22;35570;48.218;16.326;2023-05-18T18:32:18;12.20;99.90
49679;DHT22;35570;48.218;16.326;2023-05-18T18:34:44;12.20;99.90
49679;DHT22;35570;48.218;16.326;2023-05-18T18:37:10;12.20;99.90
49679;DHT22;35570;48.218;16.326;2023-05-18T18:39:35;12.20;99.90
49679;DHT22;35570;48.218;16.326;2023-05-18T18:42:01;12.20;99.90
49679;DHT22;35570;48.218;16.326;2023-05-18T18:44:27;12.10;99.90
49679;DHT22;35570;48.218;16.326;2023-05-18T18:46:53;12.10;99.90
49679;DHT22;35570;48.218;16.326;2023-05-18T18:49:18;12.10;99.90
49679;DHT22;35570;48.218;16.326;2023-05-18T18:51:44;12.10;99.90
49679;DHT22;35570;48.218;16.326;2023-05-18T18:54:12;12.10;99.90
49679;DHT22;35570;48.218;16.326;2023-05-18T18:56:38;12.10;99.90
49679;DHT22;35570;48.218;16.326;2023-05-18T18:59:03;12.10;99.90
49679;DHT22;35570;48.218;16.326;2023-05-18T19:01:29;12.10;99.90
49679;DHT22;35570;48.218;16.326;2023-05-18T19:09:06;12.00;99.90
49679;DHT22;35570;48.218;16.326;2023-05-18T19:11:31;12.00;99.90
49679;DHT22;35570;48.218;16.326;2023-05-18T19:13:57;12.00;99.90
49679;DHT22;35570;48.218;16.326;2023-05-18T19:16:23;12.00;99.90
49679;DHT22;35570;48.218;16.326;2023-05-18T19:18:48;12.00;99.90
49679;DHT22;35570;48.218;16.326;2023-05-18T19:21:14;12.00;99.90
49679;DHT22;35570;48.218;16.326;2023-05-18T19:23:39;12.00;99.90
49679;DHT22;35570;48.218;16.326;2023-05-18T19:26:05;12.00;99.90
49679;DHT22;35570;48.218;16.326;2023-05-18T19:28:31;12.00;99.90
49679;DHT22;35570;48.218;16.326;2023-05-18T19:30:56;12.00;99.90
49679;DHT22;35570;48.218;16.326;2023-05-18T19:33:22;12.00;99.90
49679;DHT22;35570;48.218;16.326;2023-05-18T19:35:48;12.00;99.90
49679;DHT22;35570;48.218;16.326;2023-05-18T19:38:14;11.90;99.90
49679;DHT22;35570;48.218;16.326;2023-05-18T19:40:40;11.90;99.90
49679;DHT22;35570;48.218;16.326;2023-05-18T19:43:05;11.90;99.90
49679;DHT22;35570;48.218;16.326;2023-05-18T19:45:31;11.90;99.90
49679;DHT22;35570;48.218;16.326;2023-05-18T19:47:58;11.90;99.90
49679;DHT22;35570;48.218;16.326;2023-05-18T19:50:24;11.90;99.90
49679;DHT22;35570;48.218;16.326;2023-05-18T19:52:49;11.90;99.90
49679;DHT22;35570;48.218;16.326;2023-05-18T19:55:15;11.90;99.90
49679;DHT22;35570;48.218;16.326;2023-05-18T19:57:41;11.90;99.90
49679;DHT22;35570;48.218;16.326;2023-05-18T20:00:07;11.80;99.90
49679;DHT22;35570;48.218;16.326;2023-05-18T20:02:35;11.80;99.90
49679;DHT22;35570;48.218;16.326;2023-05-18T20:05:01;11.80;99.90
49679;DHT22;35570;48.218;16.326;2023-05-18T20:07:30;11.80;99.90
49679;DHT22;35570;48.218;16.326;2023-05-18T20:09:57;11.80;99.90
49679;DHT22;35570;48.218;16.326;2023-05-18T20:12:23;11.70;99.90
49679;DHT22;35570;48.218;16.326;2023-05-18T20:14:49;11.80;99.90
49679;DHT22;35570;48.218;16.326;2023-05-18T20:17:16;11.70;99.90
49679;DHT22;35570;48.218;16.326;2023-05-18T20:19:42;11.70;99.90
49679;DHT22;35570;48.218;16.326;2023-05-18T20:22:14;11.80;99.90
49679;DHT22;35570;48.218;16.326;2023-05-18T20:24:40;11.70;99.90
49679;DHT22;35570;48.218;16.326;2023-05-18T20:27:09;11.70;99.90
49679;DHT22;35570;48.218;16.326;2023-05-18T20:29:35;11.70;99.90
49679;DHT22;35570;48.218;16.326;2023-05-18T20:32:01;11.70;99.90
49679;DHT22;35570;48.218;16.326;2023-05-18T20:34:26;11.70;99.90
49679;DHT22;35570;48.218;16.326;2023-05-18T20:36:52;11.70;99.90
49679;DHT22;35570;48.218;16.326;2023-05-18T20:39:18;11.70;99.90
49679;DHT22;35570;48.218;16.326;2023-05-18T20:41:43;11.70;99.90
49679;DHT22;35570;48.218;16.326;2023-05-18T20:44:09;11.70;99.90
49679;DHT22;35570;48.218;16.326;2023-05-18T20:46:36;11.70;99.90
49679;DHT22;35570;48.218;16.326;2023-05-18T20:49:02;11.70;99.90
49679;DHT22;35570;48.218;16.326;2023-05-18T20:51:29;11.70;99.90
49679;DHT22;35570;48.218;16.326;2023-05-18T20:53:56;11.70;99.90
49679;DHT22;35570;48.218;16.326;2023-05-18T20:56:24;11.70;99.90
49679;DHT22;35570;48.218;16.326;2023-05-18T20:58:52;11.70;99.90
49679;DHT22;35570;48.218;16.326;2023-05-18T21:01:17;11.70;99.90
49679;DHT22;35570;48.218;16.326;2023-05-18T21:03:45;11.70;99.90
49679;DHT22;35570;48.218;16.326;2023-05-18T21:06:12;11.70;99.90
49679;DHT22;35570;48.218;16.326;2023-05-18T21:08:38;11.70;99.90